sensor_id;sensor_type;location;lat;lon;timestamp;P1;durP1;ratioP1;P2;durP2;ratioP2
16189;SDS011;41754;51.498;7.540;2022-08-01T00:00:54;5.70;;;1.10;;
16189;SDS011;41754;51.498;7.540;2022-08-01T00:03:22;0.70;;;0.70;;
16189;SDS011;41754;51.498;7.540;2022-08-01T00:05:50;2.53;;;1.15;;
16189;SDS011;41754;51.498;7.540;2022-08-01T00:08:18;2.40;;;1.33;;
16189;SDS011;41754;51.498;7.540;2022-08-01T00:10:47;1.00;;;0.98;;
16189;SDS011;41754;51.498;7.540;2022-08-01T00:13:15;1.63;;;0.90;;
16189;SDS011;41754;51.498;7.540;2022-08-01T00:15:43;1.10;;;1.03;;
16189;SDS011;41754;51.498;7.540;2022-08-01T00:18:20;2.78;;;0.82;;
16189;SDS011;41754;51.498;7.540;2022-08-01T00:20:48;1.48;;;1.38;;
16189;SDS011;41754;51.498;7.540;2022-08-01T00:23:16;1.57;;;1.47;;
16189;SDS011;41754;51.498;7.540;2022-08-01T00:25:44;1.75;;;1.30;;
16189;SDS011;41754;51.498;7.540;2022-08-01T00:28:13;1.48;;;1.35;;
16189;SDS011;41754;51.498;7.540;2022-08-01T00:30:42;1.10;;;1.00;;
16189;SDS011;41754;51.498;7.540;2022-08-01T00:33:10;3.03;;;1.70;;
16189;SDS011;41754;51.498;7.540;2022-08-01T00:35:38;2.60;;;1.98;;
16189;SDS011;41754;51.498;7.540;2022-08-01T00:38:07;1.80;;;1.35;;
16189;SDS011;41754;51.498;7.540;2022-08-01T00:40:35;1.17;;;1.07;;
16189;SDS011;41754;51.498;7.540;2022-08-01T00:43:03;1.40;;;1.00;;
16189;SDS011;41754;51.498;7.540;2022-08-01T00:45:32;3.17;;;1.58;;
16189;SDS011;41754;51.498;7.540;2022-08-01T00:48:00;1.52;;;1.42;;
16189;SDS011;41754;51.498;7.540;2022-08-01T00:50:28;1.20;;;1.10;;
16189;SDS011;41754;51.498;7.540;2022-08-01T00:52:56;1.33;;;0.82;;
16189;SDS011;41754;51.498;7.540;2022-08-01T00:55:25;0.97;;;0.97;;
16189;SDS011;41754;51.498;7.540;2022-08-01T00:57:54;0.90;;;0.85;;
16189;SDS011;41754;51.498;7.540;2022-08-01T01:00:30;1.00;;;0.85;;
16189;SDS011;41754;51.498;7.540;2022-08-01T01:03:11;1.13;;;0.95;;
16189;SDS011;41754;51.498;7.540;2022-08-01T01:05:40;1.67;;;1.58;;
16189;SDS011;41754;51.498;7.540;2022-08-01T01:08:13;1.35;;;1.25;;
16189;SDS011;41754;51.498;7.540;2022-08-01T01:10:45;2.03;;;1.23;;
16189;SDS011;41754;51.498;7.540;2022-08-01T01:13:16;1.13;;;1.02;;
16189;SDS011;41754;51.498;7.540;2022-08-01T01:15:51;1.05;;;0.98;;
16189;SDS011;41754;51.498;7.540;2022-08-01T01:18:25;0.73;;;0.73;;
16189;SDS011;41754;51.498;7.540;2022-08-01T01:20:57;3.30;;;1.40;;
16189;SDS011;41754;51.498;7.540;2022-08-01T01:23:38;2.25;;;0.90;;
16189;SDS011;41754;51.498;7.540;2022-08-01T01:26:17;1.20;;;1.10;;
16189;SDS011;41754;51.498;7.540;2022-08-01T01:28:55;2.47;;;2.22;;
16189;SDS011;41754;51.498;7.540;2022-08-01T01:31:26;1.88;;;1.77;;
16189;SDS011;41754;51.498;7.540;2022-08-01T01:33:55;3.60;;;1.50;;
16189;SDS011;41754;51.498;7.540;2022-08-01T01:36:24;3.08;;;2.08;;
16189;SDS011;41754;51.498;7.540;2022-08-01T01:38:53;1.23;;;1.13;;
16189;SDS011;41754;51.498;7.540;2022-08-01T01:41:22;1.40;;;1.30;;
16189;SDS011;41754;51.498;7.540;2022-08-01T01:43:50;1.55;;;1.45;;
16189;SDS011;41754;51.498;7.540;2022-08-01T01:46:22;1.58;;;1.48;;
16189;SDS011;41754;51.498;7.540;2022-08-01T01:48:53;2.03;;;1.70;;
16189;SDS011;41754;51.498;7.540;2022-08-01T01:51:22;1.87;;;1.63;;
16189;SDS011;41754;51.498;7.540;2022-08-01T01:53:50;3.55;;;1.30;;
16189;SDS011;41754;51.498;7.540;2022-08-01T01:56:20;1.73;;;1.63;;
16189;SDS011;41754;51.498;7.540;2022-08-01T01:58:48;2.58;;;1.77;;
16189;SDS011;41754;51.498;7.540;2022-08-01T02:01:18;1.92;;;1.58;;
16189;SDS011;41754;51.498;7.540;2022-08-01T02:04:07;2.37;;;1.97;;
16189;SDS011;41754;51.498;7.540;2022-08-01T02:06:36;1.92;;;1.83;;
16189;SDS011;41754;51.498;7.540;2022-08-01T02:09:05;6.90;;;3.30;;
16189;SDS011;41754;51.498;7.540;2022-08-01T02:11:34;1.55;;;1.48;;
16189;SDS011;41754;51.498;7.540;2022-08-01T02:14:23;3.87;;;2.10;;
16189;SDS011;41754;51.498;7.540;2022-08-01T02:16:53;2.03;;;1.88;;
16189;SDS011;41754;51.498;7.540;2022-08-01T02:19:23;2.70;;;1.88;;
16189;SDS011;41754;51.498;7.540;2022-08-01T02:21:52;2.00;;;1.80;;
16189;SDS011;41754;51.498;7.540;2022-08-01T02:24:24;4.22;;;2.33;;
16189;SDS011;41754;51.498;7.540;2022-08-01T02:27:05;1.63;;;1.52;;
16189;SDS011;41754;51.498;7.540;2022-08-01T02:29:36;1.30;;;1.30;;
16189;SDS011;41754;51.498;7.540;2022-08-01T02:32:07;2.10;;;1.77;;
16189;SDS011;41754;51.498;7.540;2022-08-01T02:34:37;2.50;;;1.58;;
16189;SDS011;41754;51.498;7.540;2022-08-01T02:37:05;2.85;;;1.08;;
16189;SDS011;41754;51.498;7.540;2022-08-01T02:39:33;2.22;;;1.98;;
16189;SDS011;41754;51.498;7.540;2022-08-01T02:42:04;2.40;;;2.20;;
16189;SDS011;41754;51.498;7.540;2022-08-01T02:44:35;4.97;;;2.10;;
16189;SDS011;41754;51.498;7.540;2022-08-01T02:47:06;0.88;;;0.88;;
16189;SDS011;41754;51.498;7.540;2022-08-01T02:49:39;2.08;;;1.77;;
16189;SDS011;41754;51.498;7.540;2022-08-01T02:52:12;2.73;;;1.40;;
16189;SDS011;41754;51.498;7.540;2022-08-01T02:54:42;1.20;;;0.80;;
16189;SDS011;41754;51.498;7.540;2022-08-01T02:57:12;1.35;;;1.20;;
16189;SDS011;41754;51.498;7.540;2022-08-01T02:59:43;2.60;;;1.47;;
16189;SDS011;41754;51.498;7.540;2022-08-01T03:02:11;2.15;;;1.25;;
16189;SDS011;41754;51.498;7.540;2022-08-01T03:04:42;1.35;;;1.27;;
16189;SDS011;41754;51.498;7.540;2022-08-01T03:07:11;2.80;;;1.45;;
16189;SDS011;41754;51.498;7.540;2022-08-01T03:09:41;1.48;;;1.25;;
16189;SDS011;41754;51.498;7.540;2022-08-01T03:12:11;1.38;;;1.27;;
16189;SDS011;41754;51.498;7.540;2022-08-01T03:14:41;2.72;;;1.83;;
16189;SDS011;41754;51.498;7.540;2022-08-01T03:17:10;5.30;;;1.73;;
16189;SDS011;41754;51.498;7.540;2022-08-01T03:19:38;1.93;;;1.43;;
16189;SDS011;41754;51.498;7.540;2022-08-01T03:22:09;2.00;;;1.55;;
16189;SDS011;41754;51.498;7.540;2022-08-01T03:24:39;1.58;;;1.33;;
16189;SDS011;41754;51.498;7.540;2022-08-01T03:27:08;0.88;;;0.88;;
16189;SDS011;41754;51.498;7.540;2022-08-01T03:29:38;1.67;;;1.58;;
16189;SDS011;41754;51.498;7.540;2022-08-01T03:32:07;1.25;;;1.13;;
16189;SDS011;41754;51.498;7.540;2022-08-01T03:34:37;2.15;;;1.30;;
16189;SDS011;41754;51.498;7.540;2022-08-01T03:37:06;2.30;;;1.30;;
16189;SDS011;41754;51.498;7.540;2022-08-01T03:39:39;1.08;;;1.08;;
16189;SDS011;41754;51.498;7.540;2022-08-01T03:42:12;2.00;;;1.20;;
16189;SDS011;41754;51.498;7.540;2022-08-01T03:44:43;1.20;;;1.02;;
16189;SDS011;41754;51.498;7.540;2022-08-01T03:47:15;0.47;;;0.47;;
16189;SDS011;41754;51.498;7.540;2022-08-01T03:49:44;0.95;;;0.82;;
16189;SDS011;41754;51.498;7.540;2022-08-01T03:52:13;1.40;;;0.85;;
16189;SDS011;41754;51.498;7.540;2022-08-01T03:54:45;1.00;;;0.60;;
16189;SDS011;41754;51.498;7.540;2022-08-01T03:57:15;1.40;;;0.85;;
16189;SDS011;41754;51.498;7.540;2022-08-01T04:00:03;1.07;;;0.77;;
16189;SDS011;41754;51.498;7.540;2022-08-01T04:02:38;0.88;;;0.88;;
16189;SDS011;41754;51.498;7.540;2022-08-01T04:05:06;3.60;;;0.77;;
16189;SDS011;41754;51.498;7.540;2022-08-01T04:07:35;1.10;;;1.00;;
16189;SDS011;41754;51.498;7.540;2022-08-01T04:10:07;0.73;;;0.73;;
16189;SDS011;41754;51.498;7.540;2022-08-01T04:12:35;1.25;;;1.15;;
16189;SDS011;41754;51.498;7.540;2022-08-01T04:15:03;0.73;;;0.73;;
16189;SDS011;41754;51.498;7.540;2022-08-01T04:17:32;0.45;;;0.45;;
16189;SDS011;41754;51.498;7.540;2022-08-01T04:20:00;0.90;;;0.90;;
16189;SDS011;41754;51.498;7.540;2022-08-01T04:22:28;0.68;;;0.65;;
16189;SDS011;41754;51.498;7.540;2022-08-01T04:24:57;2.28;;;0.93;;
16189;SDS011;41754;51.498;7.540;2022-08-01T04:27:28;0.95;;;0.85;;
16189;SDS011;41754;51.498;7.540;2022-08-01T04:30:17;1.60;;;1.02;;
16189;SDS011;41754;51.498;7.540;2022-08-01T04:32:47;1.45;;;0.75;;
16189;SDS011;41754;51.498;7.540;2022-08-01T04:35:16;2.03;;;0.63;;
16189;SDS011;41754;51.498;7.540;2022-08-01T04:38:06;0.90;;;0.90;;
16189;SDS011;41754;51.498;7.540;2022-08-01T04:40:35;2.55;;;1.48;;
16189;SDS011;41754;51.498;7.540;2022-08-01T04:43:05;0.80;;;0.60;;
16189;SDS011;41754;51.498;7.540;2022-08-01T04:45:33;0.65;;;0.65;;
16189;SDS011;41754;51.498;7.540;2022-08-01T04:48:02;0.55;;;0.55;;
16189;SDS011;41754;51.498;7.540;2022-08-01T04:50:33;0.82;;;0.65;;
16189;SDS011;41754;51.498;7.540;2022-08-01T04:53:02;0.82;;;0.82;;
16189;SDS011;41754;51.498;7.540;2022-08-01T04:55:31;1.00;;;0.82;;
16189;SDS011;41754;51.498;7.540;2022-08-01T04:57:59;0.73;;;0.73;;
16189;SDS011;41754;51.498;7.540;2022-08-01T05:00:28;0.85;;;0.85;;
16189;SDS011;41754;51.498;7.540;2022-08-01T05:02:57;0.47;;;0.47;;
16189;SDS011;41754;51.498;7.540;2022-08-01T05:05:25;0.50;;;0.45;;
16189;SDS011;41754;51.498;7.540;2022-08-01T05:07:53;2.55;;;0.88;;
16189;SDS011;41754;51.498;7.540;2022-08-01T05:10:22;0.50;;;0.45;;
16189;SDS011;41754;51.498;7.540;2022-08-01T05:12:50;0.82;;;0.82;;
16189;SDS011;41754;51.498;7.540;2022-08-01T05:15:18;1.10;;;0.88;;
16189;SDS011;41754;51.498;7.540;2022-08-01T05:17:47;0.50;;;0.43;;
16189;SDS011;41754;51.498;7.540;2022-08-01T05:20:15;0.90;;;0.90;;
16189;SDS011;41754;51.498;7.540;2022-08-01T05:22:43;1.60;;;1.13;;
16189;SDS011;41754;51.498;7.540;2022-08-01T05:25:11;0.80;;;0.80;;
16189;SDS011;41754;51.498;7.540;2022-08-01T05:27:45;0.90;;;0.80;;
16189;SDS011;41754;51.498;7.540;2022-08-01T05:30:16;0.30;;;0.30;;
16189;SDS011;41754;51.498;7.540;2022-08-01T05:32:44;0.70;;;0.70;;
16189;SDS011;41754;51.498;7.540;2022-08-01T05:35:13;0.75;;;0.73;;
16189;SDS011;41754;51.498;7.540;2022-08-01T05:37:41;3.43;;;1.70;;
16189;SDS011;41754;51.498;7.540;2022-08-01T05:40:09;0.82;;;0.82;;
16189;SDS011;41754;51.498;7.540;2022-08-01T05:42:38;1.40;;;1.10;;
16189;SDS011;41754;51.498;7.540;2022-08-01T05:45:06;0.57;;;0.50;;
16189;SDS011;41754;51.498;7.540;2022-08-01T05:47:34;1.02;;;1.02;;
16189;SDS011;41754;51.498;7.540;2022-08-01T05:50:08;2.08;;;1.17;;
16189;SDS011;41754;51.498;7.540;2022-08-01T05:52:37;0.55;;;0.55;;
16189;SDS011;41754;51.498;7.540;2022-08-01T05:55:06;2.30;;;0.70;;
16189;SDS011;41754;51.498;7.540;2022-08-01T05:57:35;1.13;;;0.93;;
16189;SDS011;41754;51.498;7.540;2022-08-01T06:00:06;2.10;;;1.02;;
16189;SDS011;41754;51.498;7.540;2022-08-01T06:02:42;0.80;;;0.80;;
16189;SDS011;41754;51.498;7.540;2022-08-01T06:05:10;3.00;;;1.33;;
16189;SDS011;41754;51.498;7.540;2022-08-01T06:07:40;9.50;;;1.05;;
16189;SDS011;41754;51.498;7.540;2022-08-01T06:10:08;2.42;;;1.50;;
16189;SDS011;41754;51.498;7.540;2022-08-01T06:12:37;0.20;;;0.20;;
16189;SDS011;41754;51.498;7.540;2022-08-01T06:15:05;3.60;;;0.88;;
16189;SDS011;41754;51.498;7.540;2022-08-01T06:17:34;1.50;;;0.90;;
16189;SDS011;41754;51.498;7.540;2022-08-01T06:20:02;0.77;;;0.60;;
16189;SDS011;41754;51.498;7.540;2022-08-01T06:22:31;0.80;;;0.80;;
16189;SDS011;41754;51.498;7.540;2022-08-01T06:25:01;1.73;;;1.20;;
16189;SDS011;41754;51.498;7.540;2022-08-01T06:27:29;0.77;;;0.77;;
16189;SDS011;41754;51.498;7.540;2022-08-01T06:29:57;1.33;;;0.65;;
16189;SDS011;41754;51.498;7.540;2022-08-01T06:32:26;0.60;;;0.60;;
16189;SDS011;41754;51.498;7.540;2022-08-01T06:34:55;0.70;;;0.70;;
16189;SDS011;41754;51.498;7.540;2022-08-01T06:37:23;1.45;;;0.88;;
16189;SDS011;41754;51.498;7.540;2022-08-01T06:39:51;0.65;;;0.65;;
16189;SDS011;41754;51.498;7.540;2022-08-01T06:42:20;0.45;;;0.45;;
16189;SDS011;41754;51.498;7.540;2022-08-01T06:44:48;0.40;;;0.40;;
16189;SDS011;41754;51.498;7.540;2022-08-01T06:47:16;0.40;;;0.40;;
16189;SDS011;41754;51.498;7.540;2022-08-01T06:49:44;1.00;;;0.77;;
16189;SDS011;41754;51.498;7.540;2022-08-01T06:52:12;1.50;;;0.80;;
16189;SDS011;41754;51.498;7.540;2022-08-01T06:54:40;0.70;;;0.70;;
16189;SDS011;41754;51.498;7.540;2022-08-01T06:57:08;0.80;;;0.80;;
16189;SDS011;41754;51.498;7.540;2022-08-01T06:59:38;0.40;;;0.40;;
16189;SDS011;41754;51.498;7.540;2022-08-01T07:02:17;0.50;;;0.50;;
16189;SDS011;41754;51.498;7.540;2022-08-01T07:04:45;2.50;;;0.85;;
16189;SDS011;41754;51.498;7.540;2022-08-01T07:07:13;0.40;;;0.30;;
16189;SDS011;41754;51.498;7.540;2022-08-01T07:09:41;0.95;;;0.80;;
16189;SDS011;41754;51.498;7.540;2022-08-01T07:12:09;0.63;;;0.63;;
16189;SDS011;41754;51.498;7.540;2022-08-01T07:14:39;0.50;;;0.50;;
16189;SDS011;41754;51.498;7.540;2022-08-01T07:17:07;0.55;;;0.55;;
16189;SDS011;41754;51.498;7.540;2022-08-01T07:19:35;1.60;;;0.90;;
16189;SDS011;41754;51.498;7.540;2022-08-01T07:22:04;0.80;;;0.60;;
16189;SDS011;41754;51.498;7.540;2022-08-01T07:24:32;0.63;;;0.63;;
16189;SDS011;41754;51.498;7.540;2022-08-01T07:27:01;1.35;;;0.75;;
16189;SDS011;41754;51.498;7.540;2022-08-01T07:29:50;0.55;;;0.55;;
16189;SDS011;41754;51.498;7.540;2022-08-01T07:32:19;0.32;;;0.32;;
16189;SDS011;41754;51.498;7.540;2022-08-01T07:34:47;0.20;;;0.20;;
16189;SDS011;41754;51.498;7.540;2022-08-01T07:37:15;0.63;;;0.45;;
16189;SDS011;41754;51.498;7.540;2022-08-01T07:40:04;0.63;;;0.50;;
16189;SDS011;41754;51.498;7.540;2022-08-01T07:42:32;0.70;;;0.63;;
16189;SDS011;41754;51.498;7.540;2022-08-01T07:45:01;1.10;;;1.00;;
16189;SDS011;41754;51.498;7.540;2022-08-01T07:47:30;0.40;;;0.40;;
16189;SDS011;41754;51.498;7.540;2022-08-01T07:50:01;1.45;;;1.05;;
16189;SDS011;41754;51.498;7.540;2022-08-01T07:52:30;0.63;;;0.63;;
16189;SDS011;41754;51.498;7.540;2022-08-01T07:54:58;0.70;;;0.70;;
16189;SDS011;41754;51.498;7.540;2022-08-01T07:57:26;0.40;;;0.40;;
16189;SDS011;41754;51.498;7.540;2022-08-01T07:59:54;0.63;;;0.63;;
16189;SDS011;41754;51.498;7.540;2022-08-01T08:02:23;1.30;;;1.20;;
16189;SDS011;41754;51.498;7.540;2022-08-01T08:04:51;0.50;;;0.50;;
16189;SDS011;41754;51.498;7.540;2022-08-01T08:07:19;0.50;;;0.50;;
16189;SDS011;41754;51.498;7.540;2022-08-01T08:09:47;1.20;;;1.10;;
16189;SDS011;41754;51.498;7.540;2022-08-01T08:12:16;0.60;;;0.60;;
16189;SDS011;41754;51.498;7.540;2022-08-01T08:14:55;0.95;;;0.95;;
16189;SDS011;41754;51.498;7.540;2022-08-01T08:17:26;0.52;;;0.52;;
16189;SDS011;41754;51.498;7.540;2022-08-01T08:20:01;0.70;;;0.70;;
16189;SDS011;41754;51.498;7.540;2022-08-01T08:22:34;1.02;;;0.95;;
16189;SDS011;41754;51.498;7.540;2022-08-01T08:25:03;0.88;;;0.68;;
16189;SDS011;41754;51.498;7.540;2022-08-01T08:27:33;0.82;;;0.80;;
16189;SDS011;41754;51.498;7.540;2022-08-01T08:30:03;0.60;;;0.60;;
16189;SDS011;41754;51.498;7.540;2022-08-01T08:32:35;1.13;;;0.80;;
16189;SDS011;41754;51.498;7.540;2022-08-01T08:35:04;0.60;;;0.60;;
16189;SDS011;41754;51.498;7.540;2022-08-01T08:37:33;0.70;;;0.70;;
16189;SDS011;41754;51.498;7.540;2022-08-01T08:40:08;1.23;;;0.50;;
16189;SDS011;41754;51.498;7.540;2022-08-01T08:42:38;0.98;;;0.77;;
16189;SDS011;41754;51.498;7.540;2022-08-01T08:45:07;0.80;;;0.80;;
16189;SDS011;41754;51.498;7.540;2022-08-01T08:47:38;0.30;;;0.30;;
16189;SDS011;41754;51.498;7.540;2022-08-01T08:50:07;0.40;;;0.40;;
16189;SDS011;41754;51.498;7.540;2022-08-01T08:52:36;0.40;;;0.40;;
16189;SDS011;41754;51.498;7.540;2022-08-01T08:55:06;0.43;;;0.43;;
16189;SDS011;41754;51.498;7.540;2022-08-01T08:57:35;0.25;;;0.25;;
16189;SDS011;41754;51.498;7.540;2022-08-01T09:00:04;0.50;;;0.47;;
16189;SDS011;41754;51.498;7.540;2022-08-01T09:02:32;0.20;;;0.20;;
16189;SDS011;41754;51.498;7.540;2022-08-01T09:05:02;0.80;;;0.55;;
16189;SDS011;41754;51.498;7.540;2022-08-01T09:07:30;0.30;;;0.30;;
16189;SDS011;41754;51.498;7.540;2022-08-01T09:09:58;1.50;;;0.30;;
16189;SDS011;41754;51.498;7.540;2022-08-01T09:12:26;0.20;;;0.20;;
16189;SDS011;41754;51.498;7.540;2022-08-01T09:14:54;0.10;;;0.10;;
16189;SDS011;41754;51.498;7.540;2022-08-01T09:17:23;0.25;;;0.25;;
16189;SDS011;41754;51.498;7.540;2022-08-01T09:19:51;0.20;;;0.10;;
16189;SDS011;41754;51.498;7.540;2022-08-01T09:22:24;0.10;;;0.10;;
16189;SDS011;41754;51.498;7.540;2022-08-01T09:24:59;0.13;;;0.13;;
16189;SDS011;41754;51.498;7.540;2022-08-01T09:27:28;0.10;;;0.10;;
16189;SDS011;41754;51.498;7.540;2022-08-01T09:30:06;0.10;;;0.10;;
16189;SDS011;41754;51.498;7.540;2022-08-01T09:32:36;0.10;;;0.10;;
16189;SDS011;41754;51.498;7.540;2022-08-01T09:35:24;0.27;;;0.27;;
16189;SDS011;41754;51.498;7.540;2022-08-01T09:38:14;0.13;;;0.13;;
16189;SDS011;41754;51.498;7.540;2022-08-01T09:40:47;0.20;;;0.20;;
16189;SDS011;41754;51.498;7.540;2022-08-01T09:43:17;0.55;;;0.43;;
16189;SDS011;41754;51.498;7.540;2022-08-01T09:45:46;0.20;;;0.20;;
16189;SDS011;41754;51.498;7.540;2022-08-01T09:48:19;0.10;;;0.10;;
16189;SDS011;41754;51.498;7.540;2022-08-01T09:50:53;0.30;;;0.30;;
16189;SDS011;41754;51.498;7.540;2022-08-01T09:53:42;0.30;;;0.30;;
16189;SDS011;41754;51.498;7.540;2022-08-01T09:56:17;0.40;;;0.40;;
16189;SDS011;41754;51.498;7.540;2022-08-01T09:58:53;0.50;;;0.50;;
16189;SDS011;41754;51.498;7.540;2022-08-01T10:01:27;0.23;;;0.20;;
16189;SDS011;41754;51.498;7.540;2022-08-01T10:04:07;0.00;;;0.00;;
16189;SDS011;41754;51.498;7.540;2022-08-01T10:06:37;0.05;;;0.05;;
16189;SDS011;41754;51.498;7.540;2022-08-01T10:09:08;0.20;;;0.20;;
16189;SDS011;41754;51.498;7.540;2022-08-01T10:11:37;0.60;;;0.30;;
16189;SDS011;41754;51.498;7.540;2022-08-01T10:14:06;0.00;;;0.00;;
16189;SDS011;41754;51.498;7.540;2022-08-01T10:16:36;0.28;;;0.28;;
16189;SDS011;41754;51.498;7.540;2022-08-01T10:19:05;0.13;;;0.13;;
16189;SDS011;41754;51.498;7.540;2022-08-01T10:21:40;0.10;;;0.10;;
16189;SDS011;41754;51.498;7.540;2022-08-01T10:24:24;0.00;;;0.00;;
16189;SDS011;41754;51.498;7.540;2022-08-01T10:26:55;0.10;;;0.10;;
16189;SDS011;41754;51.498;7.540;2022-08-01T10:29:41;1.30;;;0.20;;
16189;SDS011;41754;51.498;7.540;2022-08-01T10:32:30;0.10;;;0.10;;
16189;SDS011;41754;51.498;7.540;2022-08-01T10:35:00;0.10;;;0.10;;
16189;SDS011;41754;51.498;7.540;2022-08-01T10:37:33;0.08;;;0.08;;
16189;SDS011;41754;51.498;7.540;2022-08-01T10:40:19;0.05;;;0.05;;
16189;SDS011;41754;51.498;7.540;2022-08-01T10:42:56;0.25;;;0.20;;
16189;SDS011;41754;51.498;7.540;2022-08-01T10:45:25;0.17;;;0.10;;
16189;SDS011;41754;51.498;7.540;2022-08-01T10:47:56;0.10;;;0.10;;
16189;SDS011;41754;51.498;7.540;2022-08-01T10:50:29;0.40;;;0.35;;
16189;SDS011;41754;51.498;7.540;2022-08-01T10:53:12;0.08;;;0.08;;
16189;SDS011;41754;51.498;7.540;2022-08-01T10:55:51;0.30;;;0.30;;
16189;SDS011;41754;51.498;7.540;2022-08-01T10:58:29;0.00;;;0.00;;
16189;SDS011;41754;51.498;7.540;2022-08-01T11:01:14;0.00;;;0.00;;
16189;SDS011;41754;51.498;7.540;2022-08-01T11:03:59;0.05;;;0.05;;
16189;SDS011;41754;51.498;7.540;2022-08-01T11:06:41;0.00;;;0.00;;
16189;SDS011;41754;51.498;7.540;2022-08-01T11:09:19;0.00;;;0.00;;
16189;SDS011;41754;51.498;7.540;2022-08-01T11:12:05;0.10;;;0.10;;
16189;SDS011;41754;51.498;7.540;2022-08-01T11:17:59;0.00;;;0.00;;
16189;SDS011;41754;51.498;7.540;2022-08-01T11:20:31;0.10;;;0.10;;
16189;SDS011;41754;51.498;7.540;2022-08-01T11:23:17;0.10;;;0.10;;
16189;SDS011;41754;51.498;7.540;2022-08-01T11:31:48;0.30;;;0.30;;
16189;SDS011;41754;51.498;7.540;2022-08-01T11:34:18;0.10;;;0.10;;
16189;SDS011;41754;51.498;7.540;2022-08-01T11:36:47;0.20;;;0.20;;
16189;SDS011;41754;51.498;7.540;2022-08-01T11:39:24;0.05;;;0.05;;
16189;SDS011;41754;51.498;7.540;2022-08-01T11:41:55;0.03;;;0.03;;
16189;SDS011;41754;51.498;7.540;2022-08-01T11:44:25;0.60;;;0.40;;
16189;SDS011;41754;51.498;7.540;2022-08-01T11:46:57;0.20;;;0.10;;
16189;SDS011;41754;51.498;7.540;2022-08-01T11:49:28;0.00;;;0.00;;
16189;SDS011;41754;51.498;7.540;2022-08-01T11:51:59;0.10;;;0.10;;
16189;SDS011;41754;51.498;7.540;2022-08-01T11:54:30;0.00;;;0.00;;
16189;SDS011;41754;51.498;7.540;2022-08-01T11:57:02;0.00;;;0.00;;
16189;SDS011;41754;51.498;7.540;2022-08-01T11:59:36;0.00;;;0.00;;
16189;SDS011;41754;51.498;7.540;2022-08-01T12:02:27;0.10;;;0.10;;
16189;SDS011;41754;51.498;7.540;2022-08-01T12:04:57;0.10;;;0.10;;
16189;SDS011;41754;51.498;7.540;2022-08-01T12:07:27;0.00;;;0.00;;
16189;SDS011;41754;51.498;7.540;2022-08-01T12:09:56;0.20;;;0.20;;
16189;SDS011;41754;51.498;7.540;2022-08-01T12:12:30;0.15;;;0.15;;
16189;SDS011;41754;51.498;7.540;2022-08-01T12:15:01;0.10;;;0.10;;
16189;SDS011;41754;51.498;7.540;2022-08-01T12:17:31;1.00;;;0.52;;
16189;SDS011;41754;51.498;7.540;2022-08-01T12:20:01;0.00;;;0.00;;
16189;SDS011;41754;51.498;7.540;2022-08-01T12:22:30;0.10;;;0.10;;
16189;SDS011;41754;51.498;7.540;2022-08-01T12:25:04;0.00;;;0.00;;
16189;SDS011;41754;51.498;7.540;2022-08-01T12:27:32;0.20;;;0.20;;
16189;SDS011;41754;51.498;7.540;2022-08-01T12:30:03;0.10;;;0.10;;
16189;SDS011;41754;51.498;7.540;2022-08-01T12:32:33;0.47;;;0.22;;
16189;SDS011;41754;51.498;7.540;2022-08-01T12:35:03;0.00;;;0.00;;
16189;SDS011;41754;51.498;7.540;2022-08-01T12:37:34;0.10;;;0.10;;
16189;SDS011;41754;51.498;7.540;2022-08-01T12:40:13;0.00;;;0.00;;
16189;SDS011;41754;51.498;7.540;2022-08-01T12:42:43;0.10;;;0.10;;
16189;SDS011;41754;51.498;7.540;2022-08-01T12:45:14;0.00;;;0.00;;
16189;SDS011;41754;51.498;7.540;2022-08-01T12:47:43;0.15;;;0.15;;
16189;SDS011;41754;51.498;7.540;2022-08-01T12:50:14;0.47;;;0.20;;
16189;SDS011;41754;51.498;7.540;2022-08-01T12:52:42;0.10;;;0.10;;
16189;SDS011;41754;51.498;7.540;2022-08-01T12:55:12;0.00;;;0.00;;
16189;SDS011;41754;51.498;7.540;2022-08-01T12:57:42;0.20;;;0.20;;
16189;SDS011;41754;51.498;7.540;2022-08-01T13:00:14;0.20;;;0.20;;
16189;SDS011;41754;51.498;7.540;2022-08-01T13:02:48;0.20;;;0.20;;
16189;SDS011;41754;51.498;7.540;2022-08-01T13:05:17;0.10;;;0.10;;
16189;SDS011;41754;51.498;7.540;2022-08-01T13:07:46;0.10;;;0.10;;
16189;SDS011;41754;51.498;7.540;2022-08-01T13:10:23;0.00;;;0.00;;
16189;SDS011;41754;51.498;7.540;2022-08-01T13:12:53;0.00;;;0.00;;
16189;SDS011;41754;51.498;7.540;2022-08-01T13:15:28;0.10;;;0.10;;
16189;SDS011;41754;51.498;7.540;2022-08-01T13:17:59;0.00;;;0.00;;
16189;SDS011;41754;51.498;7.540;2022-08-01T13:20:28;0.00;;;0.00;;
16189;SDS011;41754;51.498;7.540;2022-08-01T13:23:13;0.10;;;0.10;;
16189;SDS011;41754;51.498;7.540;2022-08-01T13:26:02;0.00;;;0.00;;
16189;SDS011;41754;51.498;7.540;2022-08-01T13:28:31;0.40;;;0.40;;
16189;SDS011;41754;51.498;7.540;2022-08-01T13:31:02;0.20;;;0.20;;
16189;SDS011;41754;51.498;7.540;2022-08-01T13:33:39;0.10;;;0.10;;
16189;SDS011;41754;51.498;7.540;2022-08-01T13:36:08;0.00;;;0.00;;
16189;SDS011;41754;51.498;7.540;2022-08-01T13:38:36;0.20;;;0.20;;
16189;SDS011;41754;51.498;7.540;2022-08-01T13:41:22;0.00;;;0.00;;
16189;SDS011;41754;51.498;7.540;2022-08-01T13:43:50;0.15;;;0.15;;
16189;SDS011;41754;51.498;7.540;2022-08-01T13:46:26;0.10;;;0.10;;
16189;SDS011;41754;51.498;7.540;2022-08-01T13:48:55;2.30;;;0.90;;
16189;SDS011;41754;51.498;7.540;2022-08-01T13:51:30;0.98;;;0.98;;
16189;SDS011;41754;51.498;7.540;2022-08-01T13:53:58;1.00;;;0.82;;
16189;SDS011;41754;51.498;7.540;2022-08-01T13:56:26;1.10;;;1.00;;
16189;SDS011;41754;51.498;7.540;2022-08-01T13:58:55;0.90;;;0.90;;
16189;SDS011;41754;51.498;7.540;2022-08-01T14:01:25;1.00;;;0.90;;
16189;SDS011;41754;51.498;7.540;2022-08-01T14:03:59;0.90;;;0.90;;
16189;SDS011;41754;51.498;7.540;2022-08-01T14:06:27;1.50;;;1.00;;
16189;SDS011;41754;51.498;7.540;2022-08-01T14:08:55;1.13;;;1.02;;
16189;SDS011;41754;51.498;7.540;2022-08-01T14:11:23;1.30;;;1.20;;
16189;SDS011;41754;51.498;7.540;2022-08-01T14:13:55;1.30;;;1.17;;
16189;SDS011;41754;51.498;7.540;2022-08-01T14:16:23;1.30;;;1.20;;
16189;SDS011;41754;51.498;7.540;2022-08-01T14:18:53;1.30;;;1.20;;
16189;SDS011;41754;51.498;7.540;2022-08-01T14:21:21;2.70;;;1.33;;
16189;SDS011;41754;51.498;7.540;2022-08-01T14:23:49;1.67;;;1.20;;
16189;SDS011;41754;51.498;7.540;2022-08-01T14:26:17;1.50;;;1.40;;
16189;SDS011;41754;51.498;7.540;2022-08-01T14:28:45;1.57;;;1.47;;
16189;SDS011;41754;51.498;7.540;2022-08-01T14:31:13;1.77;;;1.50;;
16189;SDS011;41754;51.498;7.540;2022-08-01T14:33:42;2.63;;;2.15;;
16189;SDS011;41754;51.498;7.540;2022-08-01T14:36:10;2.63;;;2.07;;
16189;SDS011;41754;51.498;7.540;2022-08-01T14:38:56;2.20;;;2.00;;
16189;SDS011;41754;51.498;7.540;2022-08-01T14:41:26;2.38;;;2.15;;
16189;SDS011;41754;51.498;7.540;2022-08-01T14:43:56;1.83;;;1.70;;
16189;SDS011;41754;51.498;7.540;2022-08-01T14:46:25;1.90;;;1.80;;
16189;SDS011;41754;51.498;7.540;2022-08-01T14:48:58;2.20;;;1.42;;
16189;SDS011;41754;51.498;7.540;2022-08-01T14:51:26;1.45;;;1.35;;
16189;SDS011;41754;51.498;7.540;2022-08-01T14:53:54;1.52;;;1.30;;
16189;SDS011;41754;51.498;7.540;2022-08-01T14:56:22;1.93;;;1.10;;
16189;SDS011;41754;51.498;7.540;2022-08-01T14:58:50;1.50;;;1.40;;
16189;SDS011;41754;51.498;7.540;2022-08-01T15:01:18;1.70;;;1.40;;
16189;SDS011;41754;51.498;7.540;2022-08-01T15:03:46;1.45;;;1.25;;
16189;SDS011;41754;51.498;7.540;2022-08-01T15:06:17;2.05;;;1.30;;
16189;SDS011;41754;51.498;7.540;2022-08-01T15:08:45;2.25;;;1.40;;
16189;SDS011;41754;51.498;7.540;2022-08-01T15:11:14;2.58;;;1.40;;
16189;SDS011;41754;51.498;7.540;2022-08-01T15:13:41;1.80;;;1.70;;
16189;SDS011;41754;51.498;7.540;2022-08-01T15:16:10;1.85;;;1.50;;
16189;SDS011;41754;51.498;7.540;2022-08-01T15:18:38;1.70;;;1.30;;
16189;SDS011;41754;51.498;7.540;2022-08-01T15:21:08;2.53;;;1.60;;